Juneau, AK (99803)

12:54 PM AKST on March 06, 2015 (GMT -0900)
Dimond Park | Change Station
CLOSE
Current Station
Personal Weather Station
Location: Juneau, AK
Elevation: 26 ft
Nearby Weather Stations

Elev 26 ft 58.38 °N, 134.59 °W | Updated 6 minutes ago

Overcast
Overcast
43.9 °F
Feels Like 42 °F
N
3.7
Wind Variable Wind from SW

Today
High -- | Low -- °F
--% Chance of Precip.
Yesterday
High -- | Low -- °F
Precip. -- in
6:39 AM 5:40 PM
Full, 99% visible
Pressure 30.39 in
Visibility 10.0 miles
Clouds Few 1300 ft
Scattered Clouds 4100 ft
Overcast 6000 ft
Windchill 42 °F
Dew Point 38 °F
Humidity 80%
Rainfall in
Snow Depth Not available.
UV 1 out of 12
Pollen Not available.
Air Quality Not available.
Flu Activity Not available.
METAR PAJN 062053Z 11008KT 10SM FEW013 SCT041 OVC060 06/04 A3039

More Conditions Fewer Conditions

Pressure 30.39 in
Visibility 10.0 miles
Clouds Few 1300 ft
Scattered Clouds 4100 ft
Overcast 6000 ft
Windchill 42 °F
Dew Point 38 °F
Humidity 80%
Rainfall in
Snow Depth Not available.
UV 1 out of 12
Pollen Not available.
Air Quality Not available.
Flu Activity Not available.
METAR PAJN 062053Z 11008KT 10SM FEW013 SCT041 OVC060 06/04 A3039

More Conditions Fewer Conditions

10-Day Weather Forecast

Almanac

Astronomy

Mar. 06, 2015 Rise Set
Actual Time
Civil Twilight
Nautical Twilight
Astronomical Twilight
Moon
Length of Visible Light
Length of Day
Tomorrow will be .
, % of the Moon is Illuminated

Today's Extremes

State Highs State Lows

Community

WunderPhotos

Upload Photos

1,803,406 photos uploaded!

WunderBlogs® & News

Nearby

Air Quality

  Air Quality AQ Index Pollutant
Not available.

Snow Depth

Station Depth Elevation

Earthquake Activity

City Distance Mag. Time & Date
Minimum magnitude displayed is 2.5.

Coastal Water Temperatures

Place Temperature

Nearby Weather Stations